createdAt,value
2022-10-30T00:00:19.849Z,12.45
2022-10-30T00:04:43.126Z,12.39
2022-10-30T00:08:46.319Z,12.36
2022-10-30T00:12:49.559Z,12.36
2022-10-30T00:16:52.769Z,12.32
2022-10-30T00:21:15.738Z,12.27
2022-10-30T00:25:37.008Z,12.23
2022-10-30T00:29:40.395Z,12.16
2022-10-30T00:34:01.234Z,12.12
2022-10-30T00:38:04.919Z,12.14
2022-10-30T00:42:13.387Z,12.17
2022-10-30T00:46:16.516Z,12.17
2022-10-30T00:50:36.425Z,12.18
2022-10-30T00:55:02.278Z,12.17
2022-10-30T00:59:13.221Z,12.16
2022-10-30T01:03:17.050Z,12.15
2022-10-30T01:07:20.780Z,12.17
2022-10-30T01:11:24.157Z,12.16
2022-10-30T01:15:36.014Z,12.16
2022-10-30T01:20:05.075Z,12.15
2022-10-30T01:24:39.743Z,12.13
2022-10-30T01:28:51.037Z,12.12
2022-10-30T01:33:02.322Z,12.11
2022-10-30T01:37:23.198Z,12.11
2022-10-30T01:41:26.742Z,12.08
2022-10-30T01:46:03.177Z,12.08
2022-10-30T01:50:43.728Z,12.07
2022-10-30T01:54:52.990Z,12.10
2022-10-30T01:59:22.502Z,12.12
2022-10-30T02:03:27.572Z,12.10
2022-10-30T02:07:32.403Z,12.10
2022-10-30T02:11:39.972Z,12.11
2022-10-30T02:15:44.355Z,12.13
2022-10-30T02:19:47.668Z,12.12
2022-10-30T02:23:50.883Z,12.05
2022-10-30T02:28:12.470Z,12.00
2022-10-30T02:32:15.660Z,11.91
2022-10-30T02:36:20.534Z,11.86
2022-10-30T02:40:24.258Z,11.82
2022-10-30T02:44:27.615Z,11.80
2022-10-30T02:48:31.076Z,11.79
2022-10-30T02:52:51.821Z,11.81
2022-10-30T02:56:55.113Z,11.85
2022-10-30T03:00:58.405Z,11.86
2022-10-30T03:05:02.451Z,11.86
2022-10-30T03:09:05.760Z,11.87
2022-10-30T03:13:08.987Z,11.89
2022-10-30T03:17:12.507Z,11.87
2022-10-30T03:21:18.954Z,11.86
2022-10-30T03:25:24.156Z,11.85
2022-10-30T03:29:30.988Z,11.84
2022-10-30T03:33:51.922Z,11.82
2022-10-30T03:38:13.437Z,11.78
2022-10-30T03:42:16.637Z,11.74
2022-10-30T03:46:19.861Z,11.70
2022-10-30T03:50:23.923Z,11.66
2022-10-30T03:54:45.005Z,11.64
2022-10-30T03:59:07.316Z,11.59
2022-10-30T04:03:12.879Z,11.58
2022-10-30T04:07:18.681Z,11.58
2022-10-30T04:11:39.210Z,11.58
2022-10-30T04:15:43.708Z,11.53
2022-10-30T04:19:46.946Z,11.50
2022-10-30T04:23:50.194Z,11.54
2022-10-30T04:27:54.100Z,11.57
2022-10-30T04:31:57.636Z,11.60
2022-10-30T04:36:01.398Z,11.60
2022-10-30T04:40:05.171Z,11.60
2022-10-30T04:44:11.562Z,11.57
2022-10-30T04:48:17.270Z,11.57
2022-10-30T04:52:20.575Z,11.60
2022-10-30T04:56:24.245Z,11.62
2022-10-30T05:00:28.016Z,11.64
2022-10-30T05:04:34.184Z,11.64
2022-10-30T05:08:38.264Z,11.68
2022-10-30T05:13:12.400Z,11.73
2022-10-30T05:17:15.699Z,11.75
2022-10-30T05:21:19.528Z,11.76
2022-10-30T05:25:24.323Z,11.77
2022-10-30T05:29:27.833Z,11.81
2022-10-30T05:33:31.093Z,11.83
2022-10-30T05:37:34.459Z,11.87
2022-10-30T05:41:37.773Z,11.87
2022-10-30T05:45:41.156Z,11.87
2022-10-30T05:49:44.584Z,11.88
2022-10-30T05:53:51.374Z,11.88
2022-10-30T05:58:06.699Z,11.92
2022-10-30T06:02:10.552Z,12.00
2022-10-30T06:06:13.955Z,12.02
2022-10-30T06:10:17.454Z,12.10
2022-10-30T06:14:35.315Z,12.19
2022-10-30T06:18:39.034Z,12.23
2022-10-30T06:23:07.754Z,12.29
2022-10-30T06:27:37.107Z,12.36
2022-10-30T06:31:40.848Z,12.40
2022-10-30T06:35:44.268Z,12.44
2022-10-30T06:39:47.610Z,12.45
2022-10-30T06:44:09.890Z,12.47
2022-10-30T06:48:14.039Z,12.45
2022-10-30T06:52:23.218Z,12.41
2022-10-30T06:56:28.838Z,12.41
2022-10-30T07:01:08.993Z,12.39
2022-10-30T07:05:33.757Z,12.39
2022-10-30T07:09:37.619Z,12.44
2022-10-30T07:13:41.292Z,12.55
2022-10-30T07:18:11.257Z,12.71
2022-10-30T07:22:14.403Z,12.79
2022-10-30T07:26:20.940Z,12.88
2022-10-30T07:30:41.766Z,13.02
2022-10-30T07:35:15.219Z,13.10
2022-10-30T07:39:44.871Z,13.16
2022-10-30T07:43:56.678Z,13.26
2022-10-30T07:48:20.155Z,13.41
2022-10-30T07:52:55.559Z,13.51
2022-10-30T07:57:03.497Z,13.59
2022-10-30T08:01:25.480Z,13.69
2022-10-30T08:05:30.425Z,13.72
2022-10-30T08:09:40.212Z,13.70
2022-10-30T08:13:43.875Z,13.71
2022-10-30T08:17:49.267Z,13.78
2022-10-30T08:22:11.555Z,13.84
2022-10-30T08:26:16.636Z,13.91
2022-10-30T08:30:20.036Z,14.00
2022-10-30T08:34:42.570Z,14.03
2022-10-30T08:38:45.859Z,14.14
2022-10-30T08:43:09.558Z,14.28
2022-10-30T08:47:13.394Z,14.42
2022-10-30T08:51:35.458Z,14.50
2022-10-30T08:55:38.821Z,14.50
2022-10-30T08:59:46.452Z,14.46
2022-10-30T09:04:07.405Z,14.42
2022-10-30T09:08:47.354Z,14.47
2022-10-30T09:13:00.397Z,14.59
2022-10-30T09:17:03.966Z,14.63
2022-10-30T09:21:07.848Z,14.58
2022-10-30T09:25:15.300Z,14.54
2022-10-30T09:29:38.828Z,14.54
2022-10-30T09:33:55.214Z,14.50
2022-10-30T09:38:33.787Z,14.56
2022-10-30T09:42:48.574Z,14.67
2022-10-30T09:47:12.905Z,14.67
2022-10-30T09:51:35.027Z,14.68
2022-10-30T09:55:58.078Z,14.79
2022-10-30T10:00:04.330Z,14.95
2022-10-30T10:04:26.863Z,15.10
2022-10-30T10:08:54.520Z,15.27
2022-10-30T10:13:17.660Z,15.40
2022-10-30T10:17:32.024Z,15.42
2022-10-30T10:21:44.003Z,15.39
2022-10-30T10:26:19.042Z,15.51
2022-10-30T10:30:55.898Z,15.67
2022-10-30T10:35:21.270Z,15.85
2022-10-30T10:39:30.815Z,16.00
2022-10-30T10:43:43.435Z,16.07
2022-10-30T10:48:16.629Z,16.11
2022-10-30T10:52:47.152Z,16.11
2022-10-30T10:56:52.347Z,15.96
2022-10-30T11:00:58.984Z,15.82
2022-10-30T11:05:19.275Z,15.81
2022-10-30T11:09:24.658Z,15.92
2022-10-30T11:13:46.218Z,16.09
2022-10-30T11:22:37.454Z,16.23
2022-10-30T11:26:40.855Z,16.17
2022-10-30T11:30:44.038Z,16.03
2022-10-30T11:34:47.273Z,15.88
2022-10-30T11:38:51.603Z,15.74
2022-10-30T11:43:03.098Z,15.55
2022-10-30T11:47:08.206Z,15.43
2022-10-30T11:51:13.673Z,15.39
2022-10-30T11:55:47.190Z,15.41
2022-10-30T12:00:21.328Z,15.37
2022-10-30T12:04:27.776Z,15.42
2022-10-30T12:08:30.935Z,15.49
2022-10-30T12:12:52.456Z,15.49
2022-10-30T12:16:57.699Z,15.43
2022-10-30T12:21:02.570Z,15.40
2022-10-30T12:25:32.599Z,15.42
2022-10-30T12:30:08.342Z,15.49
2022-10-30T12:34:22.882Z,15.67
2022-10-30T12:38:42.927Z,15.83
2022-10-30T12:43:03.136Z,15.86
2022-10-30T12:47:41.481Z,15.84
2022-10-30T12:52:16.986Z,15.85
2022-10-30T12:56:25.557Z,15.89
2022-10-30T13:00:36.747Z,15.86
2022-10-30T13:05:05.961Z,15.74
2022-10-30T13:09:28.263Z,15.57
2022-10-30T13:13:39.765Z,15.40
2022-10-30T13:17:43.566Z,15.37
2022-10-30T13:21:59.789Z,15.35
2022-10-30T13:26:08.408Z,15.28
2022-10-30T13:30:38.758Z,15.17
2022-10-30T13:35:20.875Z,15.04
2022-10-30T13:39:33.607Z,14.89
2022-10-30T13:44:05.348Z,14.77
2022-10-30T13:48:14.686Z,14.68
2022-10-30T13:52:40.942Z,14.61
2022-10-30T13:56:45.826Z,14.57
2022-10-30T14:01:24.181Z,14.52
2022-10-30T14:05:35.715Z,14.47
2022-10-30T14:09:44.497Z,14.43
2022-10-30T14:13:58.090Z,14.38
2022-10-30T14:18:13.675Z,14.36
2022-10-30T14:22:25.218Z,14.39
2022-10-30T14:26:53.124Z,14.39
2022-10-30T14:31:17.932Z,14.34
2022-10-30T14:35:37.009Z,14.28
2022-10-30T14:39:42.515Z,14.20
2022-10-30T14:44:45.179Z,14.08
2022-10-30T14:49:20.915Z,13.98
2022-10-30T14:54:02.280Z,13.92
2022-10-30T14:58:05.458Z,13.84
2022-10-30T15:02:36.097Z,13.77
2022-10-30T15:06:55.092Z,13.69
2022-10-30T15:10:58.223Z,13.60
2022-10-30T15:15:06.016Z,13.53
2022-10-30T15:19:14.868Z,13.48
2022-10-30T15:23:33.011Z,13.43
2022-10-30T15:27:43.543Z,13.37
2022-10-30T15:32:16.915Z,13.28
2022-10-30T15:36:23.688Z,13.18
2022-10-30T15:40:28.544Z,13.11
2022-10-30T15:44:49.606Z,13.07
2022-10-30T15:48:53.006Z,13.01
2022-10-30T15:52:56.984Z,12.97
2022-10-30T15:57:36.643Z,12.89
2022-10-30T16:01:38.996Z,12.85
2022-10-30T16:05:42.967Z,12.81
2022-10-30T16:10:06.263Z,12.73
2022-10-30T16:14:29.451Z,12.64
2022-10-30T16:18:51.769Z,12.51
2022-10-30T16:22:55.191Z,12.44
2022-10-30T16:27:19.382Z,12.37
2022-10-30T16:31:25.042Z,12.32
2022-10-30T16:35:54.655Z,12.19
2022-10-30T16:40:03.327Z,12.09
2022-10-30T16:44:14.266Z,12.10
2022-10-30T16:48:30.495Z,12.02
2022-10-30T16:52:38.299Z,11.81
2022-10-30T16:56:49.265Z,11.79
2022-10-30T17:01:02.884Z,11.83
2022-10-30T17:05:19.186Z,11.89
2022-10-30T17:09:27.351Z,11.90
2022-10-30T17:13:56.344Z,11.85
2022-10-30T17:18:20.708Z,11.82
2022-10-30T17:22:41.557Z,11.81
2022-10-30T17:27:05.111Z,11.73
2022-10-30T17:31:20.311Z,11.68
2022-10-30T17:35:23.525Z,11.69
2022-10-30T17:39:26.730Z,11.67
2022-10-30T17:43:34.286Z,11.61
2022-10-30T17:47:38.180Z,11.56
2022-10-30T17:51:41.524Z,11.55
2022-10-30T17:55:49.625Z,11.57
2022-10-30T17:59:55.164Z,11.57
2022-10-30T18:03:58.521Z,11.55
2022-10-30T18:08:01.951Z,11.39
2022-10-30T18:12:06.703Z,11.23
2022-10-30T18:16:11.688Z,11.17
2022-10-30T18:20:16.075Z,11.20
2022-10-30T18:24:19.315Z,11.23
2022-10-30T18:28:40.379Z,11.22
2022-10-30T18:32:43.820Z,11.17
2022-10-30T18:37:04.758Z,11.11
2022-10-30T18:41:32.550Z,11.09
2022-10-30T18:45:38.444Z,11.01
2022-10-30T18:49:41.689Z,10.91
2022-10-30T18:53:55.116Z,10.91
2022-10-30T18:57:58.990Z,10.93
2022-10-30T19:02:02.607Z,10.94
2022-10-30T19:06:10.054Z,10.97
2022-10-30T19:10:13.710Z,10.92
2022-10-30T19:14:17.062Z,10.88
2022-10-30T19:18:26.097Z,10.87
2022-10-30T19:22:29.967Z,10.84
2022-10-30T19:26:33.256Z,10.82
2022-10-30T19:30:55.061Z,10.85
2022-10-30T19:34:58.355Z,10.85
2022-10-30T19:39:08.616Z,10.88
2022-10-30T19:43:12.715Z,10.76
2022-10-30T19:47:15.976Z,10.58
2022-10-30T19:51:36.927Z,10.60
2022-10-30T19:55:42.330Z,10.66
2022-10-30T19:59:45.764Z,10.73
2022-10-30T20:04:06.585Z,10.78
2022-10-30T20:08:14.319Z,10.77
2022-10-30T20:12:20.599Z,10.74
2022-10-30T20:16:24.152Z,10.75
2022-10-30T20:20:31.441Z,10.78
2022-10-30T20:24:34.686Z,10.83
2022-10-30T20:28:41.028Z,10.83
2022-10-30T20:33:02.187Z,10.78
2022-10-30T20:37:07.476Z,10.73
2022-10-30T20:41:30.130Z,10.72
2022-10-30T20:45:33.330Z,10.72
2022-10-30T20:49:36.979Z,10.71
2022-10-30T20:53:40.276Z,10.64
2022-10-30T20:57:43.597Z,10.59
2022-10-30T21:01:46.991Z,10.57
2022-10-30T21:06:10.096Z,10.54
2022-10-30T21:10:13.587Z,10.48
2022-10-30T21:14:16.954Z,10.41
2022-10-30T21:18:20.439Z,10.29
2022-10-30T21:22:23.789Z,10.21
2022-10-30T21:26:27.075Z,10.18
2022-10-30T21:30:30.560Z,10.14
2022-10-30T21:34:51.494Z,10.04
2022-10-30T21:38:54.831Z,9.98
2022-10-30T21:43:15.565Z,9.89
2022-10-30T21:47:18.987Z,9.78
2022-10-30T21:51:25.722Z,9.71
2022-10-30T21:55:28.970Z,9.63
2022-10-30T21:59:32.216Z,9.55
2022-10-30T22:03:35.491Z,9.50
2022-10-30T22:07:38.715Z,9.48
2022-10-30T22:11:59.793Z,9.39
2022-10-30T22:16:05.055Z,9.27
2022-10-30T22:20:09.536Z,9.16
2022-10-30T22:24:30.527Z,9.05
2022-10-30T22:28:57.040Z,9.02
2022-10-30T22:33:00.650Z,9.02
2022-10-30T22:37:21.618Z,9.02
2022-10-30T22:41:42.699Z,8.95
2022-10-30T22:45:53.168Z,8.90
2022-10-30T22:49:56.574Z,8.82
2022-10-30T22:54:02.377Z,8.75
2022-10-30T22:58:28.067Z,8.72
2022-10-30T23:02:32.340Z,8.62
2022-10-30T23:06:36.429Z,8.56
2022-10-30T23:10:39.811Z,8.50
2022-10-30T23:14:43.169Z,8.51
2022-10-30T23:18:47.450Z,8.52
2022-10-30T23:22:50.750Z,8.44
2022-10-30T23:26:54.687Z,8.35
2022-10-30T23:30:58.432Z,8.29
2022-10-30T23:35:01.747Z,8.22
2022-10-30T23:39:08.454Z,8.17
2022-10-30T23:43:11.788Z,8.16
2022-10-30T23:47:15.050Z,8.08
2022-10-30T23:51:18.898Z,8.02
2022-10-30T23:55:22.142Z,7.98
2022-10-30T23:59:25.452Z,7.98
